sensor_id;sensor_type;location;lat;lon;timestamp;pressure;altitude;pressure_sealevel;temperature;humidity
6208;BME280;3137;51.550;7.060;2024-02-04T00:01:59;101997.97;;;10.06;100.00
6208;BME280;3137;51.550;7.060;2024-02-04T00:04:25;101998.81;;;10.07;100.00
6208;BME280;3137;51.550;7.060;2024-02-04T00:06:52;101993.47;;;10.07;100.00
6208;BME280;3137;51.550;7.060;2024-02-04T00:09:18;101984.84;;;10.03;100.00
6208;BME280;3137;51.550;7.060;2024-02-04T00:11:45;101975.13;;;10.02;100.00
6208;BME280;3137;51.550;7.060;2024-02-04T00:14:12;101978.66;;;10.03;100.00
6208;BME280;3137;51.550;7.060;2024-02-04T00:16:38;101964.94;;;9.96;100.00
6208;BME280;3137;51.550;7.060;2024-02-04T00:19:05;101965.78;;;9.97;100.00
6208;BME280;3137;51.550;7.060;2024-02-04T00:21:31;101950.22;;;9.91;100.00
6208;BME280;3137;51.550;7.060;2024-02-04T00:23:58;101946.44;;;9.93;100.00
6208;BME280;3137;51.550;7.060;2024-02-04T00:26:24;101955.81;;;9.99;100.00
6208;BME280;3137;51.550;7.060;2024-02-04T00:28:51;101966.00;;;9.94;100.00
6208;BME280;3137;51.550;7.060;2024-02-04T00:31:17;101964.69;;;9.99;100.00
6208;BME280;3137;51.550;7.060;2024-02-04T00:33:43;101963.22;;;9.95;100.00
6208;BME280;3137;51.550;7.060;2024-02-04T00:36:10;101955.31;;;9.94;100.00
6208;BME280;3137;51.550;7.060;2024-02-04T00:38:36;101956.91;;;9.96;100.00
6208;BME280;3137;51.550;7.060;2024-02-04T00:41:03;101956.91;;;9.96;100.00
6208;BME280;3137;51.550;7.060;2024-02-04T00:43:30;101969.66;;;9.93;100.00
6208;BME280;3137;51.550;7.060;2024-02-04T00:45:56;101960.28;;;9.87;100.00
6208;BME280;3137;51.550;7.060;2024-02-04T00:48:23;101969.66;;;9.93;100.00
6208;BME280;3137;51.550;7.060;2024-02-04T00:50:50;101955.78;;;9.88;100.00
6208;BME280;3137;51.550;7.060;2024-02-04T00:53:16;101980.44;;;9.91;100.00
6208;BME280;3137;51.550;7.060;2024-02-04T00:55:43;101984.56;;;9.84;100.00
6208;BME280;3137;51.550;7.060;2024-02-04T00:58:09;101980.53;;;9.79;100.00
6208;BME280;3137;51.550;7.060;2024-02-04T01:00:36;101982.44;;;9.77;100.00
6208;BME280;3137;51.550;7.060;2024-02-04T01:03:03;101974.31;;;9.67;100.00
6208;BME280;3137;51.550;7.060;2024-02-04T01:05:30;101970.53;;;9.70;100.00
6208;BME280;3137;51.550;7.060;2024-02-04T01:07:56;101961.78;;;9.68;100.00
6208;BME280;3137;51.550;7.060;2024-02-04T01:10:23;101959.25;;;9.66;100.00
6208;BME280;3137;51.550;7.060;2024-02-04T01:12:49;101955.94;;;9.62;100.00
6208;BME280;3137;51.550;7.060;2024-02-04T01:15:16;101956.31;;;9.69;100.00
6208;BME280;3137;51.550;7.060;2024-02-04T01:17:42;101955.72;;;9.66;100.00
6208;BME280;3137;51.550;7.060;2024-02-04T01:20:09;101962.53;;;9.70;100.00
6208;BME280;3137;51.550;7.060;2024-02-04T01:22:36;101962.53;;;9.70;100.00
6208;BME280;3137;51.550;7.060;2024-02-04T01:25:02;101963.03;;;9.75;100.00
6208;BME280;3137;51.550;7.060;2024-02-04T01:27:29;101964.84;;;9.74;100.00
6208;BME280;3137;51.550;7.060;2024-02-04T01:29:55;101952.47;;;9.73;100.00
6208;BME280;3137;51.550;7.060;2024-02-04T01:32:22;101958.28;;;9.67;100.00
6208;BME280;3137;51.550;7.060;2024-02-04T01:34:49;101952.69;;;9.70;100.00
6208;BME280;3137;51.550;7.060;2024-02-04T01:37:15;101965.69;;;9.75;100.00
6208;BME280;3137;51.550;7.060;2024-02-04T01:39:42;101962.41;;;9.71;100.00
6208;BME280;3137;51.550;7.060;2024-02-04T01:42:08;101961.31;;;9.74;100.00
6208;BME280;3137;51.550;7.060;2024-02-04T01:44:36;101959.63;;;9.73;100.00
6208;BME280;3137;51.550;7.060;2024-02-04T01:47:03;101960.47;;;9.73;100.00
6208;BME280;3137;51.550;7.060;2024-02-04T01:49:29;101967.63;;;9.73;100.00
6208;BME280;3137;51.550;7.060;2024-02-04T01:51:57;101947.34;;;9.70;100.00
6208;BME280;3137;51.550;7.060;2024-02-04T01:54:24;101948.81;;;9.74;100.00
6208;BME280;3137;51.550;7.060;2024-02-04T01:56:52;101946.59;;;9.68;100.00
6208;BME280;3137;51.550;7.060;2024-02-04T01:59:20;101940.19;;;9.71;100.00
6208;BME280;3137;51.550;7.060;2024-02-04T02:01:48;101940.41;;;9.68;100.00
6208;BME280;3137;51.550;7.060;2024-02-04T02:04:15;101937.41;;;9.72;100.00
6208;BME280;3137;51.550;7.060;2024-02-04T02:06:42;101935.72;;;9.71;100.00
6208;BME280;3137;51.550;7.060;2024-02-04T02:09:09;101934.63;;;9.74;100.00
6208;BME280;3137;51.550;7.060;2024-02-04T02:11:47;101937.03;;;9.77;100.00
6208;BME280;3137;51.550;7.060;2024-02-04T02:14:24;101942.03;;;9.81;100.00
6208;BME280;3137;51.550;7.060;2024-02-04T02:16:55;101944.09;;;9.78;100.00
6208;BME280;3137;51.550;7.060;2024-02-04T02:19:59;101948.34;;;9.80;100.00
6208;BME280;3137;51.550;7.060;2024-02-04T02:22:45;101956.84;;;9.74;100.00
6208;BME280;3137;51.550;7.060;2024-02-04T02:25:14;101952.84;;;9.80;100.00
6208;BME280;3137;51.550;7.060;2024-02-04T02:27:50;101948.81;;;9.74;100.00
6208;BME280;3137;51.550;7.060;2024-02-04T02:30:17;101946.41;;;9.82;100.00
6208;BME280;3137;51.550;7.060;2024-02-04T02:32:46;101949.84;;;9.84;100.00
6208;BME280;3137;51.550;7.060;2024-02-04T02:35:14;101942.44;;;9.88;100.00
6208;BME280;3137;51.550;7.060;2024-02-04T02:37:55;101940.38;;;9.91;100.00
6208;BME280;3137;51.550;7.060;2024-02-04T02:43:10;101941.22;;;9.92;100.00
6208;BME280;3137;51.550;7.060;2024-02-04T02:45:40;101942.94;;;9.93;100.00
6208;BME280;3137;51.550;7.060;2024-02-04T02:48:07;101950.81;;;9.94;100.00
6208;BME280;3137;51.550;7.060;2024-02-04T02:50:36;101950.72;;;9.96;100.00
6208;BME280;3137;51.550;7.060;2024-02-04T02:53:03;101955.66;;;9.89;100.00
6208;BME280;3137;51.550;7.060;2024-02-04T02:55:29;101949.84;;;9.95;100.00
6208;BME280;3137;51.550;7.060;2024-02-04T02:57:56;101949.97;;;9.94;100.00
6208;BME280;3137;51.550;7.060;2024-02-04T03:00:22;101945.97;;;9.99;100.00
6208;BME280;3137;51.550;7.060;2024-02-04T03:02:49;101945.13;;;9.99;100.00
6208;BME280;3137;51.550;7.060;2024-02-04T03:05:16;101926.53;;;9.97;100.00
6208;BME280;3137;51.550;7.060;2024-02-04T03:07:44;101934.53;;;9.97;100.00
6208;BME280;3137;51.550;7.060;2024-02-04T03:10:10;101935.06;;;10.02;100.00
6208;BME280;3137;51.550;7.060;2024-02-04T03:12:37;101933.59;;;9.98;100.00
6208;BME280;3137;51.550;7.060;2024-02-04T03:15:04;101931.06;;;9.97;100.00
6208;BME280;3137;51.550;7.060;2024-02-04T03:17:30;101926.44;;;9.99;100.00
6208;BME280;3137;51.550;7.060;2024-02-04T03:19:57;101931.06;;;9.97;100.00
6208;BME280;3137;51.550;7.060;2024-02-04T03:22:24;101922.41;;;9.93;100.00
6208;BME280;3137;51.550;7.060;2024-02-04T03:24:50;101925.06;;;9.93;100.00
6208;BME280;3137;51.550;7.060;2024-02-04T03:27:17;101929.44;;;9.94;100.00
6208;BME280;3137;51.550;7.060;2024-02-04T03:29:45;101926.44;;;9.99;100.00
6208;BME280;3137;51.550;7.060;2024-02-04T03:32:12;101920.22;;;9.98;100.00
6208;BME280;3137;51.550;7.060;2024-02-04T03:34:41;101907.13;;;9.95;100.00
6208;BME280;3137;51.550;7.060;2024-02-04T03:37:08;101913.94;;;9.99;100.00
6208;BME280;3137;51.550;7.060;2024-02-04T03:39:35;101904.19;;;9.98;100.00
6208;BME280;3137;51.550;7.060;2024-02-04T03:42:02;101894.13;;;10.02;100.00
6208;BME280;3137;51.550;7.060;2024-02-04T03:44:28;101894.38;;;9.99;100.00
6208;BME280;3137;51.550;7.060;2024-02-04T03:46:55;101905.41;;;9.94;100.00
6208;BME280;3137;51.550;7.060;2024-02-04T03:49:21;101909.19;;;10.03;100.00
6208;BME280;3137;51.550;7.060;2024-02-04T03:51:48;101903.59;;;9.95;100.00
6208;BME280;3137;51.550;7.060;2024-02-04T03:54:14;101905.06;;;9.99;100.00
6208;BME280;3137;51.550;7.060;2024-02-04T03:56:41;101921.09;;;9.99;100.00
6208;BME280;3137;51.550;7.060;2024-02-04T03:59:08;101910.03;;;9.92;100.00
6208;BME280;3137;51.550;7.060;2024-02-04T04:01:37;101911.09;;;9.90;100.00
6208;BME280;3137;51.550;7.060;2024-02-04T04:04:04;101905.31;;;9.96;100.00
6208;BME280;3137;51.550;7.060;2024-02-04T04:06:30;101911.34;;;9.98;100.00
6208;BME280;3137;51.550;7.060;2024-02-04T04:08:57;101902.78;;;10.05;100.00
6208;BME280;3137;51.550;7.060;2024-02-04T04:11:25;101897.03;;;9.99;100.00
6208;BME280;3137;51.550;7.060;2024-02-04T04:13:51;101899.47;;;10.02;100.00
6208;BME280;3137;51.550;7.060;2024-02-04T04:16:20;101896.69;;;10.03;100.00
6208;BME280;3137;51.550;7.060;2024-02-04T04:18:48;101895.94;;;10.01;100.00
6208;BME280;3137;51.550;7.060;2024-02-04T04:21:15;101897.66;;;10.02;100.00
6208;BME280;3137;51.550;7.060;2024-02-04T04:23:41;101907.13;;;10.06;100.00
6208;BME280;3137;51.550;7.060;2024-02-04T04:26:08;101904.00;;;10.13;100.00
6208;BME280;3137;51.550;7.060;2024-02-04T04:28:34;101907.00;;;10.08;100.00
6208;BME280;3137;51.550;7.060;2024-02-04T04:31:01;101916.13;;;10.05;100.00
6208;BME280;3137;51.550;7.060;2024-02-04T04:33:27;101921.09;;;10.10;100.00
6208;BME280;3137;51.550;7.060;2024-02-04T04:35:54;101934.88;;;10.17;100.00
6208;BME280;3137;51.550;7.060;2024-02-04T04:38:21;101922.78;;;10.11;100.00
6208;BME280;3137;51.550;7.060;2024-02-04T04:40:47;101914.06;;;10.09;100.00
6208;BME280;3137;51.550;7.060;2024-02-04T04:43:13;101925.47;;;10.11;100.00
6208;BME280;3137;51.550;7.060;2024-02-04T04:45:40;101922.94;;;10.09;100.00
6208;BME280;3137;51.550;7.060;2024-02-04T04:48:07;101912.09;;;10.11;100.00
6208;BME280;3137;51.550;7.060;2024-02-04T04:50:36;101914.69;;;10.13;100.00
6208;BME280;3137;51.550;7.060;2024-02-04T04:53:02;101908.47;;;10.12;100.00
6208;BME280;3137;51.550;7.060;2024-02-04T04:55:29;101908.38;;;10.14;100.00
6208;BME280;3137;51.550;7.060;2024-02-04T04:57:55;101898.63;;;10.13;100.00
6208;BME280;3137;51.550;7.060;2024-02-04T05:00:23;101902.16;;;10.13;100.00
6208;BME280;3137;51.550;7.060;2024-02-04T05:02:49;101904.50;;;10.18;100.00
6208;BME280;3137;51.550;7.060;2024-02-04T05:05:16;101884.81;;;10.19;100.00
6208;BME280;3137;51.550;7.060;2024-02-04T05:07:42;101892.84;;;10.19;100.00
6208;BME280;3137;51.550;7.060;2024-02-04T05:10:09;101895.97;;;10.13;100.00
6208;BME280;3137;51.550;7.060;2024-02-04T05:12:36;101904.00;;;10.13;100.00
6208;BME280;3137;51.550;7.060;2024-02-04T05:15:04;101899.50;;;10.13;100.00
6208;BME280;3137;51.550;7.060;2024-02-04T05:17:31;101904.63;;;10.16;100.00
6208;BME280;3137;51.550;7.060;2024-02-04T05:19:58;101902.81;;;10.17;100.00
6208;BME280;3137;51.550;7.060;2024-02-04T05:22:24;101917.13;;;10.16;100.00
6208;BME280;3137;51.550;7.060;2024-02-04T05:24:51;101917.34;;;10.13;99.77
6208;BME280;3137;51.550;7.060;2024-02-04T05:27:17;101912.97;;;10.12;99.06
6208;BME280;3137;51.550;7.060;2024-02-04T05:29:44;101902.03;;;10.15;98.64
6208;BME280;3137;51.550;7.060;2024-02-04T05:32:11;101903.88;;;10.14;98.49
6208;BME280;3137;51.550;7.060;2024-02-04T05:34:37;101900.56;;;10.10;99.03
6208;BME280;3137;51.550;7.060;2024-02-04T05:37:04;101888.91;;;10.12;98.54
6208;BME280;3137;51.550;7.060;2024-02-04T05:39:30;101880.28;;;10.08;98.75
6208;BME280;3137;51.550;7.060;2024-02-04T05:41:57;101874.84;;;10.09;98.59
6208;BME280;3137;51.550;7.060;2024-02-04T05:44:23;101884.19;;;10.04;98.77
6208;BME280;3137;51.550;7.060;2024-02-04T05:46:50;101886.59;;;10.07;98.95
6208;BME280;3137;51.550;7.060;2024-02-04T05:49:16;101878.84;;;10.04;99.08
6208;BME280;3137;51.550;7.060;2024-02-04T05:51:43;101876.88;;;10.06;99.14
6208;BME280;3137;51.550;7.060;2024-02-04T05:54:09;101882.13;;;10.07;99.12
6208;BME280;3137;51.550;7.060;2024-02-04T05:56:36;101881.25;;;10.07;99.60
6208;BME280;3137;51.550;7.060;2024-02-04T05:59:02;101871.06;;;10.01;99.63
6208;BME280;3137;51.550;7.060;2024-02-04T06:01:29;101880.66;;;10.03;99.48
6208;BME280;3137;51.550;7.060;2024-02-04T06:03:55;101877.03;;;10.04;99.65
6208;BME280;3137;51.550;7.060;2024-02-04T06:06:22;101882.56;;;10.01;99.93
6208;BME280;3137;51.550;7.060;2024-02-04T06:08:48;101867.28;;;10.03;99.45
6208;BME280;3137;51.550;7.060;2024-02-04T06:11:15;101852.63;;;10.09;99.60
6208;BME280;3137;51.550;7.060;2024-02-04T06:13:43;101869.22;;;10.01;99.61
6208;BME280;3137;51.550;7.060;2024-02-04T06:16:10;101873.59;;;10.02;99.88
6208;BME280;3137;51.550;7.060;2024-02-04T06:18:39;101859.63;;;9.99;100.00
6208;BME280;3137;51.550;7.060;2024-02-04T06:21:07;101853.09;;;10.03;99.88
6208;BME280;3137;51.550;7.060;2024-02-04T06:23:33;101857.34;;;10.05;100.00
6208;BME280;3137;51.550;7.060;2024-02-04T06:26:00;101848.59;;;10.03;100.00
6208;BME280;3137;51.550;7.060;2024-02-04T06:28:27;101840.31;;;10.06;100.00
6208;BME280;3137;51.550;7.060;2024-02-04T06:30:54;101842.03;;;10.07;100.00
6208;BME280;3137;51.550;7.060;2024-02-04T06:33:20;101842.16;;;10.06;100.00
6208;BME280;3137;51.550;7.060;2024-02-04T06:35:48;101852.22;;;10.02;100.00
6208;BME280;3137;51.550;7.060;2024-02-04T06:38:15;101850.41;;;10.03;100.00
6208;BME280;3137;51.550;7.060;2024-02-04T06:40:41;101851.72;;;9.97;100.00
6208;BME280;3137;51.550;7.060;2024-02-04T06:43:08;101843.25;;;9.92;100.00
6208;BME280;3137;51.550;7.060;2024-02-04T06:45:35;101829.41;;;9.87;100.00
6208;BME280;3137;51.550;7.060;2024-02-04T06:48:01;101828.19;;;9.91;100.00
6208;BME280;3137;51.550;7.060;2024-02-04T06:50:29;101823.81;;;9.90;100.00
6208;BME280;3137;51.550;7.060;2024-02-04T06:52:55;101834.50;;;9.90;100.00
6208;BME280;3137;51.550;7.060;2024-02-04T06:55:22;101822.34;;;9.86;100.00
6208;BME280;3137;51.550;7.060;2024-02-04T06:57:48;101823.09;;;9.88;100.00
6208;BME280;3137;51.550;7.060;2024-02-04T07:00:15;101827.69;;;9.86;100.00
6208;BME280;3137;51.550;7.060;2024-02-04T07:02:42;101811.56;;;9.88;100.00
6208;BME280;3137;51.550;7.060;2024-02-04T07:05:08;101820.44;;;9.88;100.00
6208;BME280;3137;51.550;7.060;2024-02-04T07:07:36;101815.69;;;9.92;100.00
6208;BME280;3137;51.550;7.060;2024-02-04T07:10:03;101814.59;;;9.94;100.00
6208;BME280;3137;51.550;7.060;2024-02-04T07:12:30;101809.13;;;9.96;100.00
6208;BME280;3137;51.550;7.060;2024-02-04T07:14:57;101829.41;;;9.98;100.00
6208;BME280;3137;51.550;7.060;2024-02-04T07:17:23;101843.72;;;9.97;100.00
6208;BME280;3137;51.550;7.060;2024-02-04T07:19:49;101827.47;;;10.00;100.00
6208;BME280;3137;51.550;7.060;2024-02-04T07:22:16;101856.13;;;9.98;100.00
6208;BME280;3137;51.550;7.060;2024-02-04T07:24:42;101860.25;;;10.02;100.00
6208;BME280;3137;51.550;7.060;2024-02-04T07:27:09;101860.25;;;10.02;100.00
6208;BME280;3137;51.550;7.060;2024-02-04T07:29:35;101856.50;;;10.05;100.00
6208;BME280;3137;51.550;7.060;2024-02-04T07:32:02;101846.66;;;10.05;100.00
6208;BME280;3137;51.550;7.060;2024-02-04T07:34:29;101844.81;;;10.06;100.00
6208;BME280;3137;51.550;7.060;2024-02-04T07:36:55;101833.16;;;10.07;100.00
6208;BME280;3137;51.550;7.060;2024-02-04T07:39:22;101836.59;;;10.09;100.00
6208;BME280;3137;51.550;7.060;2024-02-04T07:41:48;101840.94;;;10.10;100.00
6208;BME280;3137;51.550;7.060;2024-02-04T07:44:15;101833.31;;;10.05;100.00
6208;BME280;3137;51.550;7.060;2024-02-04T07:46:41;101841.78;;;10.10;100.00
6208;BME280;3137;51.550;7.060;2024-02-04T07:49:07;101839.13;;;10.10;100.00
6208;BME280;3137;51.550;7.060;2024-02-04T07:51:34;101834.28;;;10.04;100.00
6208;BME280;3137;51.550;7.060;2024-02-04T07:54:02;101837.19;;;10.13;100.00
6208;BME280;3137;51.550;7.060;2024-02-04T07:56:29;101836.59;;;10.20;99.49
6208;BME280;3137;51.550;7.060;2024-02-04T07:58:55;101840.25;;;10.19;99.54
6208;BME280;3137;51.550;7.060;2024-02-04T08:01:22;101831.38;;;10.19;99.91
6208;BME280;3137;51.550;7.060;2024-02-04T08:03:50;101833.22;;;10.18;99.94
6208;BME280;3137;51.550;7.060;2024-02-04T08:06:17;101826.50;;;10.13;99.94
6208;BME280;3137;51.550;7.060;2024-02-04T08:08:43;101842.31;;;10.16;100.00
6208;BME280;3137;51.550;7.060;2024-02-04T08:11:18;101847.13;;;10.10;100.00
6208;BME280;3137;51.550;7.060;2024-02-04T08:13:45;101837.66;;;10.06;100.00
6208;BME280;3137;51.550;7.060;2024-02-04T08:16:12;101844.47;;;10.10;100.00
6208;BME280;3137;51.550;7.060;2024-02-04T08:18:39;101833.53;;;10.14;99.97
6208;BME280;3137;51.550;7.060;2024-02-04T08:21:06;101826.59;;;10.11;99.66
6208;BME280;3137;51.550;7.060;2024-02-04T08:23:32;101835.38;;;10.13;99.13
6208;BME280;3137;51.550;7.060;2024-02-04T08:25:59;101817.03;;;10.20;98.27
6208;BME280;3137;51.550;7.060;2024-02-04T08:28:26;101833.94;;;10.20;98.40
6208;BME280;3137;51.550;7.060;2024-02-04T08:30:52;101834.66;;;10.22;98.43
6208;BME280;3137;51.550;7.060;2024-02-04T08:33:19;101833.06;;;10.20;98.17
6208;BME280;3137;51.550;7.060;2024-02-04T08:35:45;101837.72;;;10.18;97.72
6208;BME280;3137;51.550;7.060;2024-02-04T08:38:12;101833.22;;;10.18;97.43
6208;BME280;3137;51.550;7.060;2024-02-04T08:40:38;101835.50;;;10.23;96.36
6208;BME280;3137;51.550;7.060;2024-02-04T08:43:05;101840.25;;;10.19;97.27
6208;BME280;3137;51.550;7.060;2024-02-04T08:45:31;101841.09;;;10.20;96.97
6208;BME280;3137;51.550;7.060;2024-02-04T08:47:58;101822.28;;;10.21;97.07
6208;BME280;3137;51.550;7.060;2024-02-04T08:50:24;101838.31;;;10.21;97.36
6208;BME280;3137;51.550;7.060;2024-02-04T08:52:51;101831.16;;;10.22;97.58
6208;BME280;3137;51.550;7.060;2024-02-04T08:55:18;101825.81;;;10.22;97.82
6208;BME280;3137;51.550;7.060;2024-02-04T08:57:45;101839.03;;;10.23;98.10
6208;BME280;3137;51.550;7.060;2024-02-04T09:00:12;101829.19;;;10.24;97.49
6208;BME280;3137;51.550;7.060;2024-02-04T09:02:39;101828.56;;;10.09;97.44
6208;BME280;3137;51.550;7.060;2024-02-04T09:05:06;101838.91;;;10.14;96.68
6208;BME280;3137;51.550;7.060;2024-02-04T09:07:32;101846.06;;;10.13;96.22
6208;BME280;3137;51.550;7.060;2024-02-04T09:10:00;101840.09;;;9.98;94.83
6208;BME280;3137;51.550;7.060;2024-02-04T09:12:26;101837.16;;;9.90;95.70
6208;BME280;3137;51.550;7.060;2024-02-04T09:14:53;101829.88;;;9.70;95.78
6208;BME280;3137;51.550;7.060;2024-02-04T09:17:19;101824.72;;;9.56;96.50
6208;BME280;3137;51.550;7.060;2024-02-04T09:19:46;101827.16;;;9.48;96.91
6208;BME280;3137;51.550;7.060;2024-02-04T09:22:13;101824.97;;;9.42;98.08
6208;BME280;3137;51.550;7.060;2024-02-04T09:24:39;101834.13;;;9.38;99.21
6208;BME280;3137;51.550;7.060;2024-02-04T09:27:06;101838.66;;;9.37;99.19
6208;BME280;3137;51.550;7.060;2024-02-04T09:29:32;101834.13;;;9.38;99.56
6208;BME280;3137;51.550;7.060;2024-02-04T09:31:59;101830.31;;;9.42;99.81
6208;BME280;3137;51.550;7.060;2024-02-04T09:34:25;101832.31;;;9.38;100.00
6208;BME280;3137;51.550;7.060;2024-02-04T09:36:52;101819.13;;;9.48;100.00
6208;BME280;3137;51.550;7.060;2024-02-04T09:39:20;101819.75;;;9.51;100.00
6208;BME280;3137;51.550;7.060;2024-02-04T09:41:46;101824.28;;;9.62;100.00
6208;BME280;3137;51.550;7.060;2024-02-04T09:44:13;101832.19;;;9.75;100.00
6208;BME280;3137;51.550;7.060;2024-02-04T09:46:44;101836.31;;;9.79;100.00
6208;BME280;3137;51.550;7.060;2024-02-04T09:49:12;101838.59;;;9.72;100.00
6208;BME280;3137;51.550;7.060;2024-02-04T09:51:40;101857.63;;;9.56;100.00
6208;BME280;3137;51.550;7.060;2024-02-04T09:54:09;101854.78;;;9.47;100.00
6208;BME280;3137;51.550;7.060;2024-02-04T09:56:37;101832.97;;;9.42;100.00
6208;BME280;3137;51.550;7.060;2024-02-04T09:59:05;101837.22;;;9.44;100.00
6208;BME280;3137;51.550;7.060;2024-02-04T10:01:32;101835.56;;;9.66;100.00
6208;BME280;3137;51.550;7.060;2024-02-04T10:03:59;101840.56;;;9.81;100.00
6208;BME280;3137;51.550;7.060;2024-02-04T10:06:26;101847.38;;;9.96;100.00
6208;BME280;3137;51.550;7.060;2024-02-04T10:08:53;101848.69;;;10.02;100.00
6208;BME280;3137;51.550;7.060;2024-02-04T10:11:20;101852.97;;;10.04;100.00
6208;BME280;3137;51.550;7.060;2024-02-04T10:13:47;101839.00;;;10.12;100.00
6208;BME280;3137;51.550;7.060;2024-02-04T10:16:15;101828.94;;;10.16;100.00
6208;BME280;3137;51.550;7.060;2024-02-04T10:18:44;101828.94;;;10.16;100.00
6208;BME280;3137;51.550;7.060;2024-02-04T10:21:18;101826.50;;;10.24;100.00
6208;BME280;3137;51.550;7.060;2024-02-04T10:23:48;101829.44;;;10.21;100.00
6208;BME280;3137;51.550;7.060;2024-02-04T10:26:16;101828.59;;;10.20;100.00
6208;BME280;3137;51.550;7.060;2024-02-04T10:28:46;101838.91;;;10.25;100.00
6208;BME280;3137;51.550;7.060;2024-02-04T10:31:14;101842.63;;;10.11;100.00
6208;BME280;3137;51.550;7.060;2024-02-04T10:33:40;101842.53;;;10.13;100.00
6208;BME280;3137;51.550;7.060;2024-02-04T10:36:07;101851.25;;;10.15;100.00
6208;BME280;3137;51.550;7.060;2024-02-04T10:38:34;101831.09;;;10.10;100.00
6208;BME280;3137;51.550;7.060;2024-02-04T10:41:01;101840.56;;;10.15;100.00
6208;BME280;3137;51.550;7.060;2024-02-04T10:43:33;101832.81;;;10.12;100.00
6208;BME280;3137;51.550;7.060;2024-02-04T10:46:17;101836.84;;;10.17;100.00
6208;BME280;3137;51.550;7.060;2024-02-04T10:48:54;101836.97;;;10.27;100.00
6208;BME280;3137;51.550;7.060;2024-02-04T10:51:24;101833.69;;;10.34;99.10
6208;BME280;3137;51.550;7.060;2024-02-04T10:53:55;101834.03;;;10.41;98.69
6208;BME280;3137;51.550;7.060;2024-02-04T10:56:25;101839.75;;;10.47;98.09
6208;BME280;3137;51.550;7.060;2024-02-04T10:58:56;101839.50;;;10.50;98.00
6208;BME280;3137;51.550;7.060;2024-02-04T11:01:24;101837.03;;;10.59;97.96
6208;BME280;3137;51.550;7.060;2024-02-04T11:03:53;101828.66;;;10.63;98.18
6208;BME280;3137;51.550;7.060;2024-02-04T11:06:20;101829.34;;;10.65;98.40
6208;BME280;3137;51.550;7.060;2024-02-04T11:08:52;101827.31;;;10.69;98.17
6208;BME280;3137;51.550;7.060;2024-02-04T11:11:22;101828.59;;;10.74;97.47
6208;BME280;3137;51.550;7.060;2024-02-04T11:13:53;101830.44;;;10.74;97.06
6208;BME280;3137;51.550;7.060;2024-02-04T11:16:31;101828.13;;;10.80;97.04
6208;BME280;3137;51.550;7.060;2024-02-04T11:19:27;101827.59;;;10.86;96.31
6208;BME280;3137;51.550;7.060;2024-02-04T11:22:17;101822.41;;;10.85;94.58
6208;BME280;3137;51.550;7.060;2024-02-04T11:24:59;101825.94;;;10.74;95.12
6208;BME280;3137;51.550;7.060;2024-02-04T11:27:29;101825.88;;;10.53;95.55
6208;BME280;3137;51.550;7.060;2024-02-04T11:29:56;101802.19;;;10.49;97.25
6208;BME280;3137;51.550;7.060;2024-02-04T11:32:24;101815.22;;;10.42;97.94
6208;BME280;3137;51.550;7.060;2024-02-04T11:34:53;101810.72;;;10.32;99.16
6208;BME280;3137;51.550;7.060;2024-02-04T11:37:21;101795.66;;;10.31;99.84
6208;BME280;3137;51.550;7.060;2024-02-04T11:39:52;101794.69;;;10.21;100.00
6208;BME280;3137;51.550;7.060;2024-02-04T11:42:19;101778.66;;;10.21;100.00
6208;BME280;3137;51.550;7.060;2024-02-04T11:44:49;101784.72;;;10.23;100.00
6208;BME280;3137;51.550;7.060;2024-02-04T11:47:23;101779.25;;;10.24;100.00
6208;BME280;3137;51.550;7.060;2024-02-04T11:49:54;101779.75;;;10.29;100.00
6208;BME280;3137;51.550;7.060;2024-02-04T11:52:22;101775.97;;;10.32;100.00
6208;BME280;3137;51.550;7.060;2024-02-04T11:54:48;101782.75;;;10.36;100.00
6208;BME280;3137;51.550;7.060;2024-02-04T11:57:16;101769.91;;;10.30;100.00
6208;BME280;3137;51.550;7.060;2024-02-04T11:59:43;101772.94;;;10.25;100.00
6208;BME280;3137;51.550;7.060;2024-02-04T12:02:10;101764.81;;;10.27;100.00
6208;BME280;3137;51.550;7.060;2024-02-04T12:04:38;101765.28;;;10.32;100.00
6208;BME280;3137;51.550;7.060;2024-02-04T12:07:06;101757.16;;;10.22;100.00
6208;BME280;3137;51.550;7.060;2024-02-04T12:09:35;101764.94;;;10.14;100.00
6208;BME280;3137;51.550;7.060;2024-02-04T12:12:02;101754.00;;;10.17;100.00
6208;BME280;3137;51.550;7.060;2024-02-04T12:14:31;101748.63;;;10.06;100.00
6208;BME280;3137;51.550;7.060;2024-02-04T12:16:58;101740.25;;;10.10;100.00
6208;BME280;3137;51.550;7.060;2024-02-04T12:19:25;101753.50;;;10.12;100.00
6208;BME280;3137;51.550;7.060;2024-02-04T12:21:53;101749.88;;;10.13;100.00
6208;BME280;3137;51.550;7.060;2024-02-04T12:24:21;101746.34;;;10.13;100.00
6208;BME280;3137;51.550;7.060;2024-02-04T12:26:48;101739.81;;;10.17;100.00
6208;BME280;3137;51.550;7.060;2024-02-04T12:29:15;101744.78;;;10.21;100.00
6208;BME280;3137;51.550;7.060;2024-02-04T12:31:41;101736.75;;;10.21;100.00
6208;BME280;3137;51.550;7.060;2024-02-04T12:34:08;101723.13;;;10.24;100.00
6208;BME280;3137;51.550;7.060;2024-02-04T12:36:35;101724.00;;;10.25;100.00
6208;BME280;3137;51.550;7.060;2024-02-04T12:39:02;101720.69;;;10.32;100.00
6208;BME280;3137;51.550;7.060;2024-02-04T12:41:29;101718.75;;;10.34;100.00
6208;BME280;3137;51.550;7.060;2024-02-04T12:43:58;101722.38;;;10.33;100.00
6208;BME280;3137;51.550;7.060;2024-02-04T12:46:26;101725.91;;;10.34;100.00
6208;BME280;3137;51.550;7.060;2024-02-04T12:48:58;101714.38;;;10.33;100.00
6208;BME280;3137;51.550;7.060;2024-02-04T12:51:32;101706.63;;;10.30;100.00
6208;BME280;3137;51.550;7.060;2024-02-04T12:54:05;101706.94;;;10.37;100.00
6208;BME280;3137;51.550;7.060;2024-02-04T12:56:48;101707.69;;;10.39;100.00
6208;BME280;3137;51.550;7.060;2024-02-04T12:59:29;101706.44;;;10.43;100.00
6208;BME280;3137;51.550;7.060;2024-02-04T13:02:00;101697.59;;;10.42;100.00
6208;BME280;3137;51.550;7.060;2024-02-04T13:04:34;101695.03;;;10.41;100.00
6208;BME280;3137;51.550;7.060;2024-02-04T13:07:01;101697.84;;;10.39;100.00
6208;BME280;3137;51.550;7.060;2024-02-04T13:09:28;101698.81;;;10.38;100.00
6208;BME280;3137;51.550;7.060;2024-02-04T13:12:03;101693.19;;;10.41;100.00
6208;BME280;3137;51.550;7.060;2024-02-04T13:14:30;101692.50;;;10.39;100.00